Time;durP1;ratioP1;P1;durP2;ratioP2;P2;SDS_P1;SDS_P2;PMS_P1;PMS_P2;Temp;Humidity;BMP_temperature;BMP_pressure;BME280_temperature;BME280_humidity;BME280_pressure;Samples;Min_cycle;Max_cycle;Signal;HPM_P1;HPM_P2
2022/05/09 00:00:23;;;;;;;9.02;6.28;;;;;;;15.26;95.09;100795.50;5093810;28;20039;-84
2022/05/09 00:02:52;;;;;;;10.80;6.78;;;;;;;15.10;96.98;100788.53;5092511;28;20048;-84
2022/05/09 00:05:24;;;;;;;9.18;6.38;;;;;;;15.22;95.99;100794.00;5092652;28;20122;-80
2022/05/09 00:07:53;;;;;;;8.65;6.32;;;;;;;15.12;96.76;100791.97;5093655;28;20453;-80
2022/05/09 00:10:23;;;;;;;9.18;6.50;;;;;;;15.14;97.58;100797.22;5093706;28;20435;-80
2022/05/09 00:12:54;;;;;;;8.63;6.47;;;;;;;14.91;100.00;100790.78;5093300;28;20481;-80
2022/05/09 00:15:23;;;;;;;8.95;6.90;;;;;;;14.96;100.00;100788.66;5093667;28;20416;-80
2022/05/09 00:17:51;;;;;;;10.18;6.65;;;;;;;14.95;100.00;100796.78;5093240;28;20465;-80
2022/05/09 00:20:24;;;;;;;9.85;7.65;;;;;;;14.67;100.00;100787.97;5093490;28;20093;-80
2022/05/09 00:22:54;;;;;;;10.88;7.55;;;;;;;14.67;100.00;100790.66;5093756;28;20062;-88
2022/05/09 00:25:25;;;;;;;10.02;7.25;;;;;;;14.72;100.00;100788.50;5093706;28;20105;-79
2022/05/09 00:27:53;;;;;;;9.27;7.07;;;;;;;14.60;100.00;100784.00;5093306;28;20093;-80
2022/05/09 00:30:22;;;;;;;12.70;7.38;;;;;;;14.67;100.00;100781.72;5093431;28;20040;-80
2022/05/09 00:32:50;;;;;;;11.15;7.18;;;;;;;14.48;100.00;100787.50;5093397;28;20040;-80
2022/05/09 00:35:19;;;;;;;10.57;7.30;;;;;;;14.48;100.00;100790.19;5093694;28;20044;-79
2022/05/09 00:37:50;;;;;;;10.63;7.55;;;;;;;14.47;100.00;100792.00;5093319;28;20047;-79
2022/05/09 00:40:19;;;;;;;10.25;7.45;;;;;;;14.62;100.00;100789.25;5094619;28;20071;-79
2022/05/09 00:42:49;;;;;;;10.35;7.10;;;;;;;14.54;100.00;100795.13;5096192;28;20051;-80
2022/05/09 00:45:20;;;;;;;10.23;7.72;;;;;;;14.36;100.00;100790.97;5097133;28;20044;-79
2022/05/09 00:47:48;;;;;;;9.98;7.20;;;;;;;14.35;100.00;100794.63;5097593;28;20044;-80
2022/05/09 00:50:20;;;;;;;11.60;7.32;;;;;;;14.30;100.00;100795.81;5095703;28;20481;-80
2022/05/09 00:52:57;;;;;;;13.43;7.68;;;;;;;14.38;100.00;100795.28;5095742;28;20047;-81
2022/05/09 00:55:40;;;;;;;10.43;7.38;;;;;;;14.20;100.00;100794.69;5096227;28;20445;-79
2022/05/09 00:58:13;;;;;;;10.68;7.72;;;;;;;14.13;100.00;100803.25;5095589;28;20044;-79
2022/05/09 01:00:44;;;;;;;10.48;7.65;;;;;;;14.29;100.00;100802.13;5096038;28;20488;-80
2022/05/09 01:03:16;;;;;;;12.25;7.47;;;;;;;14.40;100.00;100798.72;5095694;28;20047;-79
2022/05/09 01:05:50;;;;;;;9.52;7.40;;;;;;;14.47;100.00;100801.88;5095723;28;20059;-79
2022/05/09 01:08:21;;;;;;;9.30;7.03;;;;;;;14.42;100.00;100799.47;5095138;28;20070;-80
2022/05/09 01:10:49;;;;;;;10.50;6.90;;;;;;;14.37;100.00;100806.09;5096975;28;20036;-79
2022/05/09 01:13:21;;;;;;;11.02;7.30;;;;;;;14.27;100.00;100811.22;5095263;28;20051;-79
2022/05/09 01:15:53;;;;;;;8.93;6.78;;;;;;;14.37;100.00;100811.47;5095538;28;20059;-79
2022/05/09 01:18:24;;;;;;;10.60;6.60;;;;;;;14.30;100.00;100811.03;5095472;28;20093;-79
2022/05/09 01:20:52;;;;;;;9.20;6.70;;;;;;;14.35;100.00;100802.69;5095205;28;20083;-80
2022/05/09 01:23:22;;;;;;;8.45;6.45;;;;;;;14.25;100.00;100807.78;5096604;28;20048;-80
2022/05/09 01:25:52;;;;;;;11.38;7.13;;;;;;;14.06;100.00;100813.50;5094980;28;20052;-79
2022/05/09 01:28:21;;;;;;;10.50;7.18;;;;;;;14.11;100.00;100821.28;5096006;28;20059;-78
2022/05/09 01:30:56;;;;;;;11.68;7.22;;;;;;;14.20;100.00;100816.16;5095183;28;20083;-78
2022/05/09 01:33:27;;;;;;;10.15;6.07;;;;;;;14.15;100.00;100818.28;5096482;28;20056;-77
2022/05/09 01:35:58;;;;;;;11.43;6.57;;;;;;;14.12;100.00;100815.81;5096529;28;20400;-78
2022/05/09 01:38:33;;;;;;;9.05;6.65;;;;;;;14.01;100.00;100821.03;5096429;28;20040;-78
2022/05/09 01:41:01;;;;;;;11.40;6.32;;;;;;;14.12;100.00;100812.25;5096120;28;20040;-78
2022/05/09 01:43:33;;;;;;;10.63;6.53;;;;;;;14.03;100.00;100814.59;5095016;28;20078;-78
2022/05/09 01:46:02;;;;;;;10.65;6.57;;;;;;;14.09;100.00;100809.75;5094660;28;20381;-78
2022/05/09 01:51:16;;;;;;;9.80;5.78;;;;;;;14.09;100.00;100813.34;5095116;28;20070;-77
2022/05/09 01:53:50;;;;;;;8.98;5.97;;;;;;;14.14;100.00;100811.19;5095840;28;20044;-79
2022/05/09 01:56:20;;;;;;;9.48;6.00;;;;;;;14.04;100.00;100810.09;5095794;28;20112;-78
2022/05/09 01:58:49;;;;;;;11.38;6.40;;;;;;;14.01;100.00;100811.16;5093645;28;20048;-78
2022/05/09 02:01:17;;;;;;;11.73;6.22;;;;;;;13.93;100.00;100808.09;5094136;28;20452;-79
2022/05/09 02:03:49;;;;;;;10.27;6.53;;;;;;;13.83;100.00;100814.16;5094537;28;20059;-78
2022/05/09 02:06:20;;;;;;;10.60;6.60;;;;;;;13.91;100.00;100810.03;5095695;28;20040;-78
2022/05/09 02:08:50;;;;;;;9.77;6.60;;;;;;;13.84;100.00;100810.53;5094412;28;20062;-78
2022/05/09 02:11:18;;;;;;;8.15;6.25;;;;;;;13.81;100.00;100808.06;5095510;28;20404;-78
2022/05/09 02:13:46;;;;;;;9.98;6.80;;;;;;;13.63;100.00;100810.09;5094423;28;20408;-75
2022/05/09 02:16:15;;;;;;;12.50;6.40;;;;;;;13.69;100.00;100817.72;5095271;28;20067;-76
2022/05/09 02:18:43;;;;;;;9.35;6.07;;;;;;;13.75;100.00;100809.31;5095423;28;20040;-76
2022/05/09 02:21:12;;;;;;;9.70;5.97;;;;;;;13.71;100.00;100813.16;5094944;28;20039;-74
2022/05/09 02:23:40;;;;;;;9.52;6.40;;;;;;;13.54;100.00;100813.34;5095101;28;20064;-76
2022/05/09 02:26:10;;;;;;;10.05;6.65;;;;;;;13.45;100.00;100814.81;5095309;28;20106;-76
2022/05/09 02:28:38;;;;;;;8.60;6.40;;;;;;;13.38;100.00;100817.00;5095384;28;20047;-75
2022/05/09 02:31:07;;;;;;;9.00;6.75;;;;;;;13.44;100.00;100821.13;5095090;28;20036;-78
2022/05/09 02:33:35;;;;;;;10.88;6.72;;;;;;;13.43;100.00;100822.94;5094210;28;20077;-78
2022/05/09 02:36:03;;;;;;;10.82;6.75;;;;;;;13.54;100.00;100818.72;5094883;28;20098;-79
2022/05/09 02:38:32;;;;;;;8.77;6.50;;;;;;;13.56;100.00;100823.00;5093788;28;20047;-78
2022/05/09 02:41:00;;;;;;;10.85;6.53;;;;;;;13.39;100.00;100816.03;5095080;28;20093;-78
2022/05/09 02:43:29;;;;;;;8.73;7.03;;;;;;;13.31;100.00;100825.50;5094764;28;20089;-78
2022/05/09 02:46:03;;;;;;;10.98;6.95;;;;;;;13.34;100.00;100819.97;5093516;28;20044;-76
2022/05/09 02:48:32;;;;;;;10.88;6.57;;;;;;;13.28;100.00;100821.22;5093384;28;20532;-78
2022/05/09 02:51:01;;;;;;;9.80;6.95;;;;;;;13.32;100.00;100820.06;5093528;28;20075;-78
2022/05/09 02:53:29;;;;;;;9.07;6.60;;;;;;;13.34;100.00;100822.66;5093761;28;20044;-77
2022/05/09 02:55:57;;;;;;;10.70;7.15;;;;;;;13.24;100.00;100822.38;5094769;28;20081;-77
2022/05/09 02:58:25;;;;;;;8.60;6.47;;;;;;;13.21;100.00;100822.53;5093155;28;20118;-76
2022/05/09 03:00:55;;;;;;;10.60;7.05;;;;;;;13.30;100.00;100823.78;5094747;28;20492;-74
2022/05/09 03:06:24;;;;;;;10.63;6.75;;;;;;;13.51;100.00;100825.16;5011901;28;20073;-76
2022/05/09 03:08:52;;;;;;;10.82;6.68;;;;;;;13.58;100.00;100833.63;4995954;28;20452;-76
2022/05/09 03:11:20;;;;;;;10.70;6.97;;;;;;;13.42;100.00;100833.75;5049567;28;20071;-76
2022/05/09 03:13:49;;;;;;;12.13;7.28;;;;;;;13.41;100.00;100832.91;5094450;28;20040;-77
2022/05/09 03:16:19;;;;;;;10.90;7.40;;;;;;;13.46;100.00;100835.28;5094171;28;20123;-77
2022/05/09 03:18:48;;;;;;;10.10;7.18;;;;;;;13.65;100.00;100838.50;5093292;28;20079;-76
2022/05/09 03:21:16;;;;;;;10.63;7.03;;;;;;;13.71;100.00;100837.28;5093874;28;20046;-78
2022/05/09 03:23:45;;;;;;;12.80;7.20;;;;;;;13.58;100.00;100839.84;5094519;28;20076;-76
2022/05/09 03:26:14;;;;;;;10.25;6.80;;;;;;;13.68;100.00;100835.63;5092502;28;20052;-77
2022/05/09 03:28:42;;;;;;;9.73;7.38;;;;;;;13.71;100.00;100840.81;5094135;28;20445;-77
2022/05/09 03:31:12;;;;;;;10.75;7.40;;;;;;;13.66;100.00;100842.91;5093799;28;20120;-75
2022/05/09 03:33:42;;;;;;;10.48;8.25;;;;;;;13.65;100.00;100845.69;5093097;28;20052;-78
2022/05/09 03:36:10;;;;;;;9.93;7.90;;;;;;;13.59;100.00;100848.75;5093908;28;20078;-78
2022/05/09 03:38:39;;;;;;;11.57;8.10;;;;;;;13.70;100.00;100844.47;5092924;28;20048;-77
2022/05/09 03:41:07;;;;;;;12.10;8.07;;;;;;;13.77;100.00;100849.41;5093516;28;20070;-76
2022/05/09 03:43:36;;;;;;;11.93;7.82;;;;;;;13.86;100.00;100843.47;5093685;28;20043;-76
2022/05/09 03:46:04;;;;;;;11.85;7.88;;;;;;;13.93;100.00;100850.16;5093654;28;20098;-77
2022/05/09 03:48:32;;;;;;;11.05;7.38;;;;;;;14.14;100.00;100848.75;5093598;28;20093;-77
2022/05/09 03:51:02;;;;;;;10.82;7.78;;;;;;;14.18;100.00;100852.94;5093948;28;20051;-77
2022/05/09 03:53:31;;;;;;;10.35;7.63;;;;;;;14.22;100.00;100857.16;5093896;28;20042;-77
2022/05/09 03:56:00;;;;;;;11.95;7.88;;;;;;;14.46;100.00;100854.69;5093967;28;20480;-77
2022/05/09 03:58:28;;;;;;;9.50;7.55;;;;;;;14.72;100.00;100852.09;5093747;28;20040;-78
2022/05/09 04:00:57;;;;;;;13.75;7.95;;;;;;;14.92;100.00;100865.03;5092585;28;20072;-78
2022/05/09 04:03:25;;;;;;;10.80;7.43;;;;;;;15.29;97.07;100860.66;5092515;28;20048;-78
2022/05/09 04:05:53;;;;;;;8.95;6.85;;;;;;;15.64;90.94;100865.41;5094071;28;20044;-77
2022/05/09 04:08:23;;;;;;;9.13;6.68;;;;;;;15.81;87.44;100858.78;5092144;28;20048;-79
2022/05/09 04:10:54;;;;;;;11.32;6.93;;;;;;;15.63;88.33;100867.22;5092793;28;20048;-78
2022/05/09 04:13:22;;;;;;;10.40;6.85;;;;;;;16.09;84.24;100860.31;5092225;28;20400;-78
2022/05/09 04:18:40;;;;;;;8.98;6.10;;;;;;;16.73;78.74;100867.19;5092377;28;20054;-81
2022/05/09 04:21:09;;;;;;;10.77;6.50;;;;;;;16.31;80.28;100865.84;5091981;28;20051;-82
2022/05/09 04:23:40;;;;;;;9.00;5.85;;;;;;;16.63;79.19;100868.81;5092494;28;20044;-81
2022/05/09 04:26:08;;;;;;;9.25;6.40;;;;;;;16.57;79.49;100867.44;5091816;28;20048;-80
2022/05/09 04:28:36;;;;;;;10.00;6.53;;;;;;;16.81;78.07;100871.97;5092201;28;20083;-78
2022/05/09 04:31:05;;;;;;;8.40;6.22;;;;;;;16.99;76.46;100865.19;5092295;28;20135;-79
2022/05/09 04:33:34;;;;;;;8.88;6.28;;;;;;;17.39;74.23;100871.00;5093762;28;20139;-78
2022/05/09 04:36:04;;;;;;;10.98;6.03;;;;;;;17.92;71.08;100868.56;5091804;28;20591;-79
2022/05/09 04:38:33;;;;;;;11.98;6.13;;;;;;;18.43;68.50;100877.91;5091898;28;20052;-77
2022/05/09 04:41:03;;;;;;;7.30;5.82;;;;;;;18.27;68.92;100879.22;5092280;28;20048;-79
2022/05/09 04:43:33;;;;;;;7.75;5.50;;;;;;;19.01;65.42;100882.03;5093069;28;20044;-79
2022/05/09 04:46:03;;;;;;;9.68;5.60;;;;;;;18.62;65.72;100875.38;5092270;28;20386;-76
2022/05/09 04:48:32;;;;;;;8.02;5.38;;;;;;;19.34;63.10;100874.69;5091316;28;20052;-76
2022/05/09 04:51:01;;;;;;;7.80;5.60;;;;;;;19.26;62.63;100878.06;5093275;28;20047;-75
2022/05/09 04:53:29;;;;;;;8.15;5.15;;;;;;;19.36;61.66;100878.97;5091504;28;20127;-76
2022/05/09 04:55:58;;;;;;;8.05;5.20;;;;;;;19.35;62.14;100879.09;5091822;28;20131;-79
2022/05/09 04:58:28;;;;;;;7.05;5.18;;;;;;;18.52;63.79;100882.56;5091366;28;20044;-75
2022/05/09 05:00:56;;;;;;;8.18;4.80;;;;;;;18.57;64.76;100880.34;5092090;28;20047;-74
2022/05/09 05:03:25;;;;;;;7.55;4.72;;;;;;;18.65;64.17;100877.03;5091469;28;20044;-77
2022/05/09 05:05:53;;;;;;;7.47;5.00;;;;;;;18.81;63.46;100878.28;5092675;28;20512;-77
2022/05/09 05:08:23;;;;;;;9.25;5.00;;;;;;;18.46;65.27;100883.09;5091211;28;20052;-77
2022/05/09 05:10:53;;;;;;;10.77;5.03;;;;;;;18.37;65.77;100881.16;5092931;28;20094;-77
2022/05/09 05:13:22;;;;;;;6.75;4.75;;;;;;;18.39;65.45;100884.56;5091415;28;20068;-76
2022/05/09 05:15:52;;;;;;;9.20;5.38;;;;;;;18.38;65.28;100890.97;5092728;28;20499;-76
2022/05/09 05:18:21;;;;;;;9.43;4.80;;;;;;;18.17;66.37;100883.66;5092553;28;20044;-74
2022/05/09 05:20:49;;;;;;;7.22;4.90;;;;;;;18.06;66.49;100891.78;5091437;28;20113;-75
2022/05/09 05:23:18;;;;;;;7.30;4.60;;;;;;;18.13;65.97;100887.56;5091335;28;20048;-78
2022/05/09 05:25:47;;;;;;;7.95;4.70;;;;;;;18.19;65.95;100892.47;5091307;28;20052;-78
2022/05/09 05:28:16;;;;;;;9.10;4.75;;;;;;;18.46;64.87;100883.09;5096198;28;20044;-75
2022/05/09 05:30:45;;;;;;;9.43;5.13;;;;;;;18.39;64.99;100887.28;5095634;28;20499;-76
2022/05/09 05:33:15;;;;;;;8.98;5.25;;;;;;;19.00;63.41;100893.81;5095949;28;20048;-77
2022/05/09 05:35:43;;;;;;;9.18;5.05;;;;;;;18.99;61.69;100891.22;5096553;28;20117;-73
2022/05/09 05:38:11;;;;;;;9.02;4.82;;;;;;;18.70;62.54;100896.41;5094492;28;20414;-73
2022/05/09 05:40:40;;;;;;;7.40;5.03;;;;;;;18.63;63.39;100901.44;5096503;28;20040;-73
2022/05/09 05:43:14;;;;;;;10.20;5.30;;;;;;;18.73;63.05;100896.16;5094141;28;20497;-76
2022/05/09 05:45:46;;;;;;;11.55;5.20;;;;;;;18.62;63.35;100898.84;5095724;28;20040;-72
2022/05/09 05:48:16;;;;;;;9.98;5.50;;;;;;;18.63;64.04;100901.44;5094310;28;20054;-76
2022/05/09 05:50:44;;;;;;;8.77;5.18;;;;;;;18.87;62.24;100899.41;5095646;28;20050;-76
2022/05/09 05:53:12;;;;;;;9.57;4.68;;;;;;;18.89;62.29;100901.97;5095738;28;20133;-76
2022/05/09 05:55:41;;;;;;;10.23;5.35;;;;;;;18.89;63.30;100901.97;5094344;28;20052;-75
2022/05/09 05:58:09;;;;;;;8.70;4.93;;;;;;;18.98;62.09;100906.59;5094209;28;20056;-76
2022/05/09 06:00:37;;;;;;;10.02;5.13;;;;;;;19.05;62.03;100910.50;5086751;28;20143;-77
2022/05/09 06:03:07;;;;;;;7.75;5.13;;;;;;;19.43;60.77;100912.63;5089619;28;20048;-77
2022/05/09 06:05:37;;;;;;;7.13;4.82;;;;;;;19.43;60.69;100911.75;5073384;28;20075;-80
2022/05/09 06:08:06;;;;;;;7.40;4.95;;;;;;;19.36;60.70;100913.28;5073898;28;20056;-77
2022/05/09 06:10:34;;;;;;;9.27;5.43;;;;;;;19.31;60.80;100910.97;5074805;28;20068;-77
2022/05/09 06:13:09;;;;;;;7.88;5.30;;;;;;;19.38;60.66;100912.13;5074136;28;20040;-77
2022/05/09 06:15:37;;;;;;;8.32;4.90;;;;;;;19.57;58.97;100910.56;5076270;28;20051;-78
2022/05/09 06:18:09;;;;;;;6.38;4.65;;;;;;;19.40;58.76;100918.31;5093211;28;20043;-84
2022/05/09 06:20:40;;;;;;;7.03;5.05;;;;;;;19.39;59.29;100921.97;5095171;28;20056;-74
2022/05/09 06:23:09;;;;;;;9.52;5.03;;;;;;;19.62;58.88;100920.03;5077037;28;20067;-74
2022/05/09 06:25:37;;;;;;;6.05;4.65;;;;;;;20.33;57.10;100921.84;5076688;28;20056;-73
2022/05/09 06:28:07;;;;;;;11.60;4.85;;;;;;;21.15;54.34;100919.69;5076798;28;20492;-75
2022/05/09 06:30:35;;;;;;;7.50;4.85;;;;;;;21.25;53.06;100919.66;5076650;28;20079;-76
2022/05/09 06:33:04;;;;;;;9.57;4.70;;;;;;;21.33;52.00;100917.97;5077089;28;20054;-77
2022/05/09 06:35:33;;;;;;;9.20;4.93;;;;;;;20.94;53.77;100921.66;5094528;28;20040;-76
2022/05/09 06:38:05;;;;;;;7.97;4.78;;;;;;;21.08;53.46;100921.25;5094391;28;20044;-76
2022/05/09 06:40:36;;;;;;;7.63;4.55;;;;;;;21.63;52.61;100918.75;5094698;28;20036;-76
2022/05/09 06:43:06;;;;;;;6.75;5.00;;;;;;;21.76;51.67;100923.84;5076890;28;20141;-77
2022/05/09 06:45:36;;;;;;;8.43;4.80;;;;;;;21.27;52.51;100912.25;5076659;28;20105;-77
2022/05/09 06:48:05;;;;;;;10.20;4.78;;;;;;;21.08;53.46;100919.38;5094832;28;20528;-76
2022/05/09 06:50:35;;;;;;;7.93;5.00;;;;;;;21.05;53.05;100924.25;5076042;28;20070;-76
2022/05/09 06:53:05;;;;;;;7.68;4.90;;;;;;;21.08;53.87;100924.81;5076370;28;20055;-77
2022/05/09 06:55:45;;;;;;;8.52;5.35;;;;;;;20.71;54.62;100926.50;5093988;28;20095;-76
2022/05/09 06:58:17;;;;;;;9.45;5.15;;;;;;;20.76;55.08;100925.09;5094553;28;20036;-74
2022/05/09 07:00:46;;;;;;;8.48;4.60;;;;;;;21.18;54.38;100922.09;5077077;28;20071;-77
2022/05/09 07:03:15;;;;;;;7.88;4.72;;;;;;;21.35;53.35;100926.81;5094420;28;20078;-77
2022/05/09 07:05:45;;;;;;;7.60;4.63;;;;;;;21.34;52.71;100932.41;5076072;28;20045;-78
2022/05/09 07:08:15;;;;;;;7.45;4.53;;;;;;;21.60;52.71;100935.31;5076317;28;20123;-77
2022/05/09 07:10:44;;;;;;;7.50;4.85;;;;;;;21.50;52.87;100929.91;5093660;28;20105;-77
2022/05/09 07:13:24;;;;;;;5.88;4.47;;;;;;;21.57;53.15;100928.34;5075895;28;20056;-76
2022/05/09 07:15:56;;;;;;;6.22;4.60;;;;;;;21.76;52.17;100930.13;5094268;28;20044;-77
2022/05/09 07:18:27;;;;;;;10.50;4.97;;;;;;;21.78;50.88;100935.41;5093684;28;20040;-78
2022/05/09 07:20:55;;;;;;;6.65;4.35;;;;;;;21.94;50.48;100938.38;5076087;28;20090;-75
2022/05/09 07:23:25;;;;;;;7.40;4.45;;;;;;;21.77;51.77;100931.84;5093263;28;20043;-77
2022/05/09 07:25:55;;;;;;;7.00;4.50;;;;;;;21.85;50.31;100939.25;5093671;28;20048;-76
2022/05/09 07:28:26;;;;;;;7.15;4.40;;;;;;;21.78;50.66;100932.69;5075117;28;20548;-77
2022/05/09 07:30:56;;;;;;;7.65;5.28;;;;;;;21.81;52.35;100933.28;5093766;28;20404;-76
2022/05/09 07:33:25;;;;;;;7.10;4.68;;;;;;;21.89;52.13;100932.50;5075141;28;20052;-77
2022/05/09 07:35:53;;;;;;;8.68;4.68;;;;;;;21.97;51.44;100929.91;5075341;28;20051;-76
2022/05/09 07:38:21;;;;;;;8.52;4.25;;;;;;;21.80;50.74;100926.09;5093628;28;20123;-75
2022/05/09 07:40:51;;;;;;;8.05;4.57;;;;;;;21.83;50.06;100931.25;5093186;28;20078;-76
2022/05/09 07:43:22;;;;;;;7.72;4.03;;;;;;;21.75;51.05;100924.88;5075356;28;20122;-76
2022/05/09 07:45:53;;;;;;;9.52;4.72;;;;;;;22.06;50.47;100929.00;5093680;28;20039;-76
2022/05/09 07:48:23;;;;;;;5.78;3.92;;;;;;;22.12;50.55;100928.47;5093607;28;20051;-76
2022/05/09 07:50:52;;;;;;;8.40;4.47;;;;;;;21.88;50.06;100928.09;5075026;28;20048;-76
2022/05/09 07:53:23;;;;;;;7.80;4.55;;;;;;;22.09;50.29;100936.88;5075496;28;20047;-76
2022/05/09 07:55:53;;;;;;;8.18;4.70;;;;;;;22.03;50.07;100925.75;5093352;28;20123;-76
2022/05/09 07:58:22;;;;;;;8.27;4.50;;;;;;;22.26;49.56;100933.38;5093558;28;20123;-76
2022/05/09 08:00:51;;;;;;;7.80;4.40;;;;;;;22.21;49.30;100935.72;5093717;28;20075;-77
2022/05/09 08:03:22;;;;;;;7.68;4.45;;;;;;;22.44;48.10;100925.25;5075327;28;20151;-76
2022/05/09 08:05:52;;;;;;;8.07;4.40;;;;;;;22.48;48.28;100931.25;5075658;28;20051;-76
2022/05/09 08:08:20;;;;;;;7.13;4.10;;;;;;;22.56;47.55;100934.06;5075346;28;20048;-77
2022/05/09 08:10:49;;;;;;;5.75;4.30;;;;;;;22.40;45.55;100928.44;5092569;28;20054;-77
2022/05/09 08:13:19;;;;;;;8.70;4.50;;;;;;;22.20;47.08;100934.00;5075323;28;20056;-76
2022/05/09 08:15:49;;;;;;;8.65;4.30;;;;;;;22.21;45.92;100935.72;5075208;28;20075;-76
2022/05/09 08:18:19;;;;;;;7.90;5.07;;;;;;;22.02;46.74;100941.19;5075218;28;20052;-77
2022/05/09 08:20:48;;;;;;;6.57;4.45;;;;;;;21.98;46.20;100935.19;5092671;28;20439;-77
2022/05/09 08:23:18;;;;;;;10.10;4.85;;;;;;;22.13;46.54;100932.03;5075066;28;20051;-76
2022/05/09 08:25:49;;;;;;;9.75;4.65;;;;;;;22.32;46.77;100931.94;5074590;28;20067;-77
2022/05/09 08:28:20;;;;;;;6.97;4.53;;;;;;;22.54;46.59;100925.19;5091929;28;20091;-77
2022/05/09 08:30:49;;;;;;;8.68;4.78;;;;;;;22.67;45.30;100917.50;5074689;28;20043;-76
2022/05/09 08:33:19;;;;;;;7.78;4.47;;;;;;;22.82;45.32;100926.84;5074905;28;20130;-76
2022/05/09 08:35:49;;;;;;;6.00;4.28;;;;;;;22.93;45.01;100914.91;5074829;28;20484;-76
2022/05/09 08:38:19;;;;;;;8.48;4.70;;;;;;;22.95;44.90;100923.78;5092997;28;20091;-76
2022/05/09 08:40:58;;;;;;;6.47;4.60;;;;;;;22.83;43.63;100925.84;5074780;28;20062;-76
2022/05/09 08:43:44;;;;;;;7.80;4.50;;;;;;;22.64;44.63;100916.97;5093138;28;20119;-76
2022/05/09 08:46:20;;;;;;;8.57;4.47;;;;;;;22.83;44.18;100919.56;5074942;28;20055;-76
2022/05/09 08:49:02;;;;;;;10.02;4.35;;;;;;;22.77;44.00;100925.59;5092542;28;20400;-78
2022/05/09 08:51:48;;;;;;;7.60;4.60;;;;;;;22.95;44.02;100917.47;5074230;28;20066;-78
2022/05/09 08:54:22;;;;;;;8.45;4.95;;;;;;;23.04;43.67;100922.84;5092372;28;20094;-77
2022/05/09 08:56:58;;;;;;;8.20;5.22;;;;;;;23.12;44.20;100919.34;5073556;28;20048;-77
2022/05/09 08:59:33;;;;;;;7.13;4.40;;;;;;;22.80;43.51;100926.16;5074497;28;20444;-77
2022/05/09 09:02:08;;;;;;;7.57;4.97;;;;;;;22.87;43.10;100920.13;5078186;28;20048;-77
2022/05/09 09:04:38;;;;;;;7.43;4.63;;;;;;;23.07;43.17;100918.97;5096022;28;20040;-76
2022/05/09 09:07:28;;;;;;;8.65;4.25;;;;;;;23.38;43.17;100925.69;5078004;28;20082;-76
2022/05/09 09:10:09;;;;;;;7.35;4.50;;;;;;;23.46;42.30;100926.75;5078144;28;20520;-76
2022/05/09 09:12:48;;;;;;;7.03;4.90;;;;;;;23.37;42.69;100918.53;5078145;28;20155;-77
2022/05/09 09:15:28;;;;;;;9.32;4.72;;;;;;;23.21;42.07;100923.84;5078305;28;20044;-76
2022/05/09 09:18:11;;;;;;;7.05;4.50;;;;;;;23.56;42.33;100928.34;5078415;28;20056;-77
2022/05/09 09:20:55;;;;;;;8.02;4.72;;;;;;;23.55;41.14;100920.34;5096085;28;20149;-77
2022/05/09 09:23:40;;;;;;;6.38;4.35;;;;;;;23.68;41.31;100923.53;5078482;28;20048;-76
2022/05/09 09:26:20;;;;;;;8.32;5.53;;;;;;;23.55;41.19;100931.25;5094760;28;20139;-76
2022/05/09 09:28:52;;;;;;;6.38;4.75;;;;;;;23.46;41.76;100926.75;5077846;28;20076;-76
2022/05/09 09:31:27;;;;;;;9.20;4.38;;;;;;;23.81;42.32;100925.81;5096092;28;20055;-76
2022/05/09 09:34:01;;;;;;;6.75;4.70;;;;;;;23.93;41.53;100919.03;5077918;28;20056;-76
2022/05/09 09:36:36;;;;;;;6.85;4.93;;;;;;;23.70;41.54;100918.75;5078130;28;20399;-76
2022/05/09 09:39:11;;;;;;;7.35;4.85;;;;;;;24.04;41.75;100926.97;5077797;28;20058;-76
2022/05/09 09:41:39;;;;;;;8.02;5.07;;;;;;;23.82;41.86;100922.06;5077719;28;20048;-79
2022/05/09 09:44:12;;;;;;;7.68;4.80;;;;;;;23.96;40.97;100916.88;5096050;28;20484;-77
2022/05/09 09:49:40;;;;;;;7.47;4.80;;;;;;;23.63;41.26;100917.69;5090231;27;20379;-76
2022/05/09 09:52:19;;;;;;;8.87;5.03;;;;;;;23.60;41.05;100909.84;5089466;28;20055;-78
2022/05/09 09:54:59;;;;;;;7.60;4.97;;;;;;;23.51;41.04;100910.78;5090473;28;20037;-78
2022/05/09 09:57:32;;;;;;;8.63;4.55;;;;;;;23.47;40.88;100914.84;5090689;28;20054;-77
2022/05/09 10:00:15;;;;;;;7.75;4.72;;;;;;;23.64;40.75;100909.38;5106337;28;20111;-76
2022/05/09 10:02:43;;;;;;;8.07;4.55;;;;;;;23.92;40.11;100907.28;5089063;28;20407;-78
2022/05/09 10:05:16;;;;;;;7.10;4.22;;;;;;;24.11;39.63;100910.78;5090471;28;20370;-78
2022/05/09 10:07:45;;;;;;;6.22;4.53;;;;;;;24.10;39.58;100914.53;5088920;28;20151;-78
2022/05/09 10:10:15;;;;;;;5.80;4.55;;;;;;;24.14;39.36;100905.88;5090127;28;20042;-77
2022/05/09 10:12:48;;;;;;;6.22;4.30;;;;;;;23.99;39.87;100902.06;5089943;28;20048;-77
2022/05/09 10:15:34;;;;;;;7.10;4.55;;;;;;;24.19;39.43;100903.50;5089974;28;20129;-77
2022/05/09 10:18:18;;;;;;;6.93;4.18;;;;;;;24.18;38.97;100899.06;5089882;28;20110;-77
2022/05/09 10:21:19;;;;;;;9.47;5.97;;;;;;;24.14;39.09;100894.97;5088755;28;20052;-76
2022/05/09 10:26:37;;;;;;;6.75;4.10;;;;;;;23.60;41.19;100885.34;5088145;28;20123;-77
2022/05/09 10:29:15;;;;;;;9.93;4.18;;;;;;;23.64;42.13;100881.28;5089709;28;20098;-77
2022/05/09 10:31:50;;;;;;;7.30;4.60;;;;;;;23.83;41.26;100889.19;5089345;28;20444;-78
2022/05/09 10:34:25;;;;;;;5.82;4.22;;;;;;;23.69;41.53;100884.38;5089889;28;20081;-78
2022/05/09 10:37:01;;;;;;;6.50;4.55;;;;;;;23.86;41.27;100886.19;5088229;28;20123;-78
2022/05/09 10:39:35;;;;;;;6.15;4.05;;;;;;;23.66;41.29;100887.44;5089381;28;20477;-76
2022/05/09 10:42:07;;;;;;;7.70;4.35;;;;;;;23.60;41.69;100878.03;5088485;28;20059;-77
2022/05/09 10:44:45;;;;;;;5.90;4.63;;;;;;;23.35;42.02;100887.88;5088246;28;20090;-75
2022/05/09 10:47:32;;;;;;;6.20;4.32;;;;;;;23.47;41.12;100882.19;5088047;28;20052;-78
2022/05/09 10:50:09;;;;;;;11.52;4.47;;;;;;;23.25;41.85;100878.94;5087904;28;20054;-76
2022/05/09 10:52:47;;;;;;;7.25;4.07;;;;;;;23.13;42.15;100888.38;5087917;28;20075;-78
2022/05/09 10:55:25;;;;;;;8.35;4.10;;;;;;;23.21;41.54;100890.31;5088115;28;20056;-77
2022/05/09 10:58:02;;;;;;;8.77;4.28;;;;;;;23.32;41.87;100885.47;5087915;28;20052;-77
2022/05/09 11:00:33;;;;;;;7.93;4.40;;;;;;;23.05;42.32;100885.59;5077242;28;20094;-77
2022/05/09 11:03:12;;;;;;;6.57;5.00;;;;;;;22.91;45.30;100886.16;5074310;28;20049;-77
2022/05/09 11:05:56;;;;;;;8.35;5.07;;;;;;;23.01;45.60;100895.09;5075657;28;20045;-77
2022/05/09 11:08:35;;;;;;;9.82;4.72;;;;;;;22.95;46.46;100890.28;5074591;28;20056;-77
2022/05/09 11:11:13;;;;;;;8.75;4.85;;;;;;;22.89;47.47;100885.47;5075830;28;20041;-77
2022/05/09 11:13:52;;;;;;;9.07;5.40;;;;;;;22.94;47.41;100885.84;5075152;28;20087;-78
2022/05/09 11:16:28;;;;;;;10.20;5.30;;;;;;;23.03;46.97;100883.03;5075791;28;20486;-77
2022/05/09 11:19:29;;;;;;;9.45;5.13;;;;;;;22.84;47.15;100884.06;5073955;28;20063;-77
2022/05/09 11:22:05;;;;;;;6.68;4.43;;;;;;;22.49;46.52;100886.78;5074941;28;20476;-76
2022/05/09 11:24:56;;;;;;;7.28;4.50;;;;;;;22.15;47.13;100887.41;5074138;28;20052;-77
2022/05/09 11:27:43;;;;;;;6.63;4.75;;;;;;;21.97;48.68;100890.03;5074288;28;20048;-76
2022/05/09 11:30:33;;;;;;;7.03;4.57;;;;;;;22.05;49.14;100888.41;5073761;28;20135;-76
2022/05/09 11:33:30;;;;;;;9.57;5.20;;;;;;;22.10;48.90;100892.44;5073575;28;20048;-77
2022/05/09 11:36:06;;;;;;;7.30;4.70;;;;;;;22.43;48.88;100884.66;5073602;28;20044;-77
2022/05/09 11:38:52;;;;;;;9.98;5.15;;;;;;;22.69;48.39;100885.59;5075252;28;20470;-77
2022/05/09 11:41:32;;;;;;;7.70;4.82;;;;;;;23.07;46.75;100878.16;5074771;28;20044;-77
2022/05/09 11:44:12;;;;;;;8.98;4.50;;;;;;;23.36;44.80;100883.31;5074950;28;20102;-77
2022/05/09 11:46:58;;;;;;;8.20;5.00;;;;;;;23.23;46.10;100877.41;5075066;28;20037;-77
2022/05/09 11:49:42;;;;;;;8.32;4.70;;;;;;;23.26;46.10;100882.53;5074102;28;20074;-77
2022/05/09 11:52:15;;;;;;;9.88;5.97;;;;;;;22.96;47.69;100871.06;5074823;28;20403;-76
2022/05/09 11:54:45;;;;;;;;;;;;;;;23.07;44.87;100872.72;5074693;28;20064;-77